Time;durP1;ratioP1;P1;durP2;ratioP2;P2;SDS_P1;SDS_P2;PMS_P1;PMS_P2;Temp;Humidity;BMP_temperature;BMP_pressure;BME280_temperature;BME280_humidity;BME280_pressure;Samples;Min_cycle;Max_cycle;Signal;HPM_P1;HPM_P2
2023/10/05 00:00:39;;;;;;;7.30;6.63;;;15.60;23.60;;;;;;4998613;28;20476;-79
2023/10/05 00:03:06;;;;;;;7.17;6.77;;;15.60;23.40;;;;;;5003920;28;20182;-77
2023/10/05 00:05:37;;;;;;;7.53;7.03;;;15.60;23.50;;;;;;4984768;28;20428;-79
2023/10/05 00:08:04;;;;;;;7.53;6.90;;;15.50;23.60;;;;;;5004380;28;20433;-81
2023/10/05 00:10:31;;;;;;;7.57;7.17;;;15.60;23.70;;;;;;5003739;28;20469;-79
2023/10/05 00:13:00;;;;;;;7.47;6.97;;;15.40;24.10;;;;;;5003183;28;20413;-80
2023/10/05 00:15:27;;;;;;;7.87;7.33;;;15.40;24.40;;;;;;5003366;28;20452;-80
2023/10/05 00:17:54;;;;;;;6.97;6.47;;;15.00;24.60;;;;;;5003529;28;20425;-80
2023/10/05 00:20:35;;;;;;;7.90;7.40;;;14.70;25.40;;;;;;5003675;28;20432;-79
2023/10/05 00:23:03;;;;;;;8.27;7.67;;;14.60;26.30;;;;;;4997869;28;20449;-77
2023/10/05 00:25:32;;;;;;;8.30;7.70;;;14.70;26.40;;;;;;4991186;28;20429;-80
2023/10/05 00:28:00;;;;;;;8.23;7.70;;;14.80;25.80;;;;;;5012832;28;20925;-81
2023/10/05 00:30:25;;;;;;;8.37;7.57;;;14.90;25.40;;;;;;5005674;28;20465;-79
2023/10/05 00:32:58;;;;;;;7.90;7.50;;;15.00;25.30;;;;;;4988797;28;20452;-79
2023/10/05 00:35:29;;;;;;;8.13;7.63;;;15.10;25.70;;;;;;5002189;28;20542;-77
2023/10/05 00:37:57;;;;;;;8.03;7.50;;;15.10;24.90;;;;;;4994254;28;20580;-81
2023/10/05 00:41:08;;;;;;;8.10;7.50;;;14.80;25.30;;;;;;4987702;28;20448;-81
2023/10/05 00:45:47;;;;;;;7.73;7.33;;;14.80;25.70;;;;;;5004987;28;20451;-79
2023/10/05 00:48:26;;;;;;;7.60;7.30;;;15.00;25.20;;;;;;5004276;28;20839;-81
2023/10/05 00:50:55;;;;;;;7.47;7.07;;;15.00;24.60;;;;;;4986489;28;20456;-79
2023/10/05 00:53:21;;;;;;;7.93;7.23;;;15.10;24.50;;;;;;5006934;28;20444;-78
2023/10/05 00:55:57;;;;;;;7.53;7.03;;;15.20;24.50;;;;;;5006605;28;20944;-79
2023/10/05 00:58:34;;;;;;;8.40;7.40;;;15.20;24.50;;;;;;4980926;28;20524;-79
2023/10/05 01:01:05;;;;;;;6.90;6.50;;;15.20;24.60;;;;;;4981255;28;20420;-79
2023/10/05 01:03:46;;;;;;;7.80;7.40;;;15.30;24.40;;;;;;5003126;28;20496;-79
2023/10/05 01:06:12;;;;;;;7.43;7.03;;;15.30;24.40;;;;;;4987469;28;20485;-79
2023/10/05 01:08:49;;;;;;;7.97;7.53;;;15.30;24.50;;;;;;4987156;28;20535;-75
2023/10/05 01:11:25;;;;;;;7.47;7.07;;;15.20;24.40;;;;;;5005384;28;20425;-80
2023/10/05 01:13:52;;;;;;;7.50;7.00;;;15.20;24.40;;;;;;5002309;28;20913;-81
2023/10/05 01:16:21;;;;;;;6.87;6.37;;;15.20;24.20;;;;;;4980782;28;20861;-80
2023/10/05 01:18:47;;;;;;;7.77;7.27;;;15.20;24.30;;;;;;4985424;28;20429;-80
2023/10/05 01:21:13;;;;;;;7.33;6.93;;;15.20;24.40;;;;;;4991342;28;20847;-80
2023/10/05 01:23:40;;;;;;;7.30;6.80;;;15.20;24.40;;;;;;4992312;28;20431;-80
2023/10/05 01:26:10;;;;;;;7.60;7.20;;;15.20;24.30;;;;;;4985973;28;20440;-80
2023/10/05 01:28:37;;;;;;;7.40;6.90;;;15.20;24.40;;;;;;4987068;28;20460;-80
2023/10/05 01:31:07;;;;;;;8.23;7.73;;;15.20;24.30;;;;;;4987502;28;20429;-79
2023/10/05 01:33:37;;;;;;;7.97;7.47;;;15.20;24.10;;;;;;4988276;28;20468;-80
2023/10/05 01:36:06;;;;;;;7.27;6.77;;;15.20;24.10;;;;;;4998938;28;20393;-80
2023/10/05 01:38:37;;;;;;;8.00;7.50;;;15.00;23.70;;;;;;4989822;28;20452;-79
2023/10/05 01:41:05;;;;;;;7.70;7.30;;;14.70;24.20;;;;;;5008007;28;20405;-79
2023/10/05 01:43:30;;;;;;;8.27;7.47;;;14.50;25.20;;;;;;5004598;28;20500;-79
2023/10/05 01:45:56;;;;;;;7.27;6.83;;;14.50;25.40;;;;;;4990511;28;20450;-80
2023/10/05 01:48:26;;;;;;;7.40;7.00;;;14.60;25.00;;;;;;5000681;28;20194;-80
2023/10/05 01:50:52;;;;;;;7.63;7.03;;;14.60;24.50;;;;;;4997883;28;20205;-79
2023/10/05 01:53:18;;;;;;;7.50;7.00;;;14.40;25.10;;;;;;4980832;28;20433;-79
2023/10/05 01:55:47;;;;;;;7.10;6.80;;;14.60;25.30;;;;;;4998064;28;20166;-79
2023/10/05 01:58:22;;;;;;;7.33;6.93;;;14.60;25.10;;;;;;4979443;28;20453;-79
2023/10/05 02:00:47;;;;;;;7.70;7.30;;;14.70;24.60;;;;;;4996215;28;20428;-80
2023/10/05 02:03:13;;;;;;;7.77;7.37;;;14.80;24.20;;;;;;4979050;28;21048;-80
2023/10/05 02:05:39;;;;;;;8.00;7.60;;;14.60;23.90;;;;;;4987091;28;20178;-80
2023/10/05 02:08:05;;;;;;;7.53;7.00;;;14.40;24.40;;;;;;4981745;28;20200;-80
2023/10/05 02:10:40;;;;;;;7.97;7.47;;;14.10;25.80;;;;;;5003312;28;20202;-77
2023/10/05 02:13:12;;;;;;;7.47;6.97;;;14.00;25.90;;;;;;4984101;28;20444;-81
2023/10/05 02:15:39;;;;;;;7.67;7.20;;;14.20;25.90;;;;;;4988216;28;20421;-82
2023/10/05 02:18:13;;;;;;;8.10;7.70;;;14.30;25.50;;;;;;5019134;28;20446;-79
2023/10/05 02:20:42;;;;;;;7.37;6.87;;;14.40;25.40;;;;;;5020256;28;21010;-79
2023/10/05 02:23:25;;;;;;;8.50;7.90;;;14.60;25.40;;;;;;4979093;28;20419;-79
2023/10/05 02:25:56;;;;;;;7.63;7.17;;;14.60;25.20;;;;;;4994435;28;20417;-79
2023/10/05 02:28:33;;;;;;;7.90;7.50;;;14.80;25.10;;;;;;4993527;28;20932;-80
2023/10/05 02:31:05;;;;;;;8.00;7.50;;;14.80;24.80;;;;;;4976244;28;20421;-80
2023/10/05 02:33:32;;;;;;;8.30;7.80;;;14.80;24.70;;;;;;4976320;28;20429;-80
2023/10/05 02:36:20;;;;;;;8.27;7.87;;;14.80;24.70;;;;;;4993649;28;20417;-81
2023/10/05 02:38:49;;;;;;;7.83;7.07;;;14.90;24.70;;;;;;4983847;28;20452;-80
2023/10/05 02:41:17;;;;;;;8.87;8.27;;;14.90;24.50;;;;;;4985697;28;20449;-79
2023/10/05 02:43:51;;;;;;;9.00;8.50;;;14.90;24.60;;;;;;4985563;28;20432;-80
2023/10/05 02:46:19;;;;;;;8.93;8.40;;;14.90;24.50;;;;;;5003454;28;20766;-80
2023/10/05 02:48:45;;;;;;;7.97;7.57;;;14.90;24.00;;;;;;5014623;28;20464;-79
2023/10/05 02:51:13;;;;;;;8.57;7.97;;;14.90;23.90;;;;;;5012477;28;20798;-79
2023/10/05 02:53:43;;;;;;;7.97;7.57;;;14.90;23.90;;;;;;4988210;28;20178;-77
2023/10/05 02:56:31;;;;;;;7.80;7.40;;;14.90;24.00;;;;;;4993232;28;20417;-78
2023/10/05 02:59:20;;;;;;;7.83;7.43;;;14.90;24.10;;;;;;5011599;28;20421;-79
2023/10/05 03:01:43;;;;;;;8.00;7.60;;;14.90;24.00;;;;;;5003867;28;20425;-80
2023/10/05 03:04:18;;;;;;;7.63;7.23;;;14.90;24.00;;;;;;5010089;28;20676;-79
2023/10/05 03:06:48;;;;;;;8.13;7.63;;;14.90;23.80;;;;;;5015576;28;20197;-79
2023/10/05 03:09:14;;;;;;;8.37;7.87;;;14.90;23.90;;;;;;4992184;28;20460;-78
2023/10/05 03:11:41;;;;;;;8.50;8.00;;;14.70;24.00;;;;;;5009295;28;20502;-78
2023/10/05 03:14:11;;;;;;;8.43;8.00;;;14.40;24.80;;;;;;5009443;28;20178;-80
2023/10/05 03:16:43;;;;;;;8.40;8.00;;;14.30;24.80;;;;;;4991860;28;20437;-80
2023/10/05 03:19:16;;;;;;;8.00;7.40;;;14.20;25.40;;;;;;4991391;28;20413;-77
2023/10/05 03:21:45;;;;;;;8.50;7.90;;;14.10;25.70;;;;;;5005348;28;20412;-77
2023/10/05 03:24:13;;;;;;;8.87;8.37;;;13.90;25.80;;;;;;5011254;28;20421;-80
2023/10/05 03:26:42;;;;;;;8.83;8.33;;;13.80;26.40;;;;;;5014417;28;20429;-78
2023/10/05 03:29:11;;;;;;;8.43;7.93;;;14.00;26.40;;;;;;5016242;28;20536;-77
2023/10/05 03:31:52;;;;;;;8.53;8.07;;;14.00;26.30;;;;;;5009505;28;20754;-82
2023/10/05 03:34:18;;;;;;;9.10;8.47;;;14.10;26.30;;;;;;4983276;28;20425;-80
2023/10/05 03:36:47;;;;;;;8.53;7.93;;;14.30;26.10;;;;;;5003259;28;20445;-81
2023/10/05 03:39:13;;;;;;;9.37;8.90;;;14.40;26.20;;;;;;4984608;28;20429;-78
2023/10/05 03:41:39;;;;;;;9.27;8.80;;;14.40;25.80;;;;;;4984966;28;20475;-79
2023/10/05 03:44:07;;;;;;;9.30;8.70;;;14.50;25.50;;;;;;4993216;28;20485;-79
2023/10/05 03:46:36;;;;;;;9.47;8.87;;;14.60;25.10;;;;;;5010623;28;20571;-78
2023/10/05 03:49:02;;;;;;;8.13;7.60;;;14.60;24.80;;;;;;5006287;28;20481;-78
2023/10/05 03:51:29;;;;;;;8.77;8.07;;;14.70;24.60;;;;;;4992941;28;20421;-81
2023/10/05 03:53:54;;;;;;;8.33;7.80;;;14.70;24.70;;;;;;4990896;28;20193;-80
2023/10/05 03:56:21;;;;;;;8.07;7.67;;;14.70;24.70;;;;;;5006015;28;20413;-80
2023/10/05 03:58:54;;;;;;;8.50;8.07;;;14.70;24.60;;;;;;5006537;28;20179;-80
2023/10/05 04:01:22;;;;;;;8.60;8.10;;;14.50;25.20;;;;;;4992550;28;20417;-78
2023/10/05 04:03:50;;;;;;;8.87;8.27;;;14.30;25.40;;;;;;5010925;28;20838;-76
2023/10/05 04:06:25;;;;;;;8.33;7.73;;;14.20;26.00;;;;;;5002011;28;20421;-79
2023/10/05 04:09:00;;;;;;;9.53;8.90;;;14.00;25.90;;;;;;5002307;28;20930;-77
2023/10/05 04:11:26;;;;;;;8.70;8.30;;;14.00;26.50;;;;;;4985502;28;20497;-79
2023/10/05 04:13:53;;;;;;;9.30;8.70;;;13.80;26.40;;;;;;5002418;28;20413;-79
2023/10/05 04:16:26;;;;;;;9.80;9.20;;;13.80;26.10;;;;;;4986086;28;20476;-78
2023/10/05 04:18:52;;;;;;;9.30;8.80;;;13.80;26.60;;;;;;5004916;28;20509;-79
2023/10/05 04:21:19;;;;;;;9.70;9.00;;;13.80;26.40;;;;;;4985182;28;20429;-79
2023/10/05 04:23:49;;;;;;;9.60;9.03;;;13.70;26.50;;;;;;5003266;28;20485;-76
2023/10/05 04:26:21;;;;;;;9.83;9.30;;;13.70;26.80;;;;;;4984978;28;20480;-82
2023/10/05 04:28:54;;;;;;;9.90;9.30;;;13.70;27.00;;;;;;5002523;28;20480;-79
2023/10/05 04:31:27;;;;;;;8.97;8.57;;;13.60;27.00;;;;;;4984293;28;20613;-79
2023/10/05 04:33:57;;;;;;;8.63;8.13;;;13.60;27.10;;;;;;5003477;28;20421;-79
2023/10/05 04:36:24;;;;;;;9.67;9.17;;;13.60;27.30;;;;;;5003271;28;20432;-80
2023/10/05 04:38:54;;;;;;;10.20;9.40;;;13.60;27.20;;;;;;5002459;28;20504;-79
2023/10/05 04:41:34;;;;;;;9.97;9.37;;;13.60;27.30;;;;;;4985174;28;20421;-81
2023/10/05 04:44:01;;;;;;;8.77;8.37;;;13.60;27.00;;;;;;5005563;28;20420;-79
2023/10/05 04:46:28;;;;;;;10.13;9.30;;;13.50;27.90;;;;;;4987005;28;20975;-80
2023/10/05 04:49:10;;;;;;;10.07;9.57;;;13.70;27.70;;;;;;4985807;28;20461;-81
2023/10/05 04:51:38;;;;;;;8.67;8.27;;;13.70;27.00;;;;;;4987017;28;20417;-80
2023/10/05 04:54:11;;;;;;;9.23;8.73;;;13.80;26.70;;;;;;5007842;28;20418;-80
2023/10/05 04:56:47;;;;;;;8.60;8.10;;;13.80;27.00;;;;;;4988941;28;20441;-79
2023/10/05 05:06:53;;;;;;;8.43;8.03;;;14.00;26.70;;;;;;5009835;28;20464;-80
2023/10/05 05:09:20;;;;;;;7.53;6.93;;;14.10;26.00;;;;;;4986133;28;21046;-81
2023/10/05 05:11:47;;;;;;;8.40;7.70;;;14.30;26.10;;;;;;5001940;28;20429;-79
2023/10/05 05:14:13;;;;;;;8.23;7.80;;;14.30;26.10;;;;;;5008153;28;20424;-81
2023/10/05 05:16:40;;;;;;;8.10;7.60;;;14.40;25.80;;;;;;4994031;28;20448;-80
2023/10/05 05:19:06;;;;;;;9.20;8.40;;;14.40;25.60;;;;;;5004363;28;20197;-79
2023/10/05 05:21:34;;;;;;;8.37;7.80;;;14.50;25.40;;;;;;5004312;28;20880;-81
2023/10/05 05:24:00;;;;;;;8.00;7.50;;;14.50;25.80;;;;;;5003720;28;20429;-81
2023/10/05 05:26:26;;;;;;;8.83;7.93;;;14.50;25.20;;;;;;4987576;28;20420;-80
2023/10/05 05:28:54;;;;;;;8.50;8.00;;;14.30;25.50;;;;;;4986836;28;20536;-80
2023/10/05 05:31:21;;;;;;;8.43;7.90;;;14.30;26.10;;;;;;4985511;28;20194;-79
2023/10/05 05:33:46;;;;;;;8.00;7.60;;;14.40;25.90;;;;;;4987757;28;20428;-80
2023/10/05 05:36:13;;;;;;;8.20;7.80;;;14.40;26.20;;;;;;5004992;28;20523;-80
2023/10/05 05:38:44;;;;;;;8.07;7.47;;;14.50;25.40;;;;;;5005067;28;20792;-78
2023/10/05 05:41:11;;;;;;;9.07;8.33;;;14.60;25.50;;;;;;5004898;28;20413;-77
2023/10/05 05:43:39;;;;;;;8.20;7.80;;;14.60;25.20;;;;;;5012336;28;20426;-78
2023/10/05 05:46:09;;;;;;;8.47;7.97;;;14.50;25.40;;;;;;5008775;28;20500;-80
2023/10/05 05:48:35;;;;;;;8.63;8.03;;;14.60;26.00;;;;;;4989172;28;20464;-80
2023/10/05 05:51:06;;;;;;;8.10;7.70;;;14.70;25.10;;;;;;5004102;28;20433;-80
2023/10/05 05:53:33;;;;;;;8.37;7.87;;;14.70;24.60;;;;;;5012415;28;20161;-79
2023/10/05 05:56:01;;;;;;;9.93;9.37;;;14.70;25.30;;;;;;5013471;28;20413;-78
2023/10/05 05:58:26;;;;;;;9.30;8.60;;;14.70;24.90;;;;;;4996723;28;20445;-80
2023/10/05 06:00:52;;;;;;;9.20;8.30;;;14.50;25.20;;;;;;4993812;28;20434;-77
2023/10/05 06:03:18;;;;;;;8.40;7.70;;;14.40;26.20;;;;;;5003538;28;20179;-78
2023/10/05 06:05:44;;;;;;;9.20;8.60;;;14.50;25.50;;;;;;4987926;28;20449;-77
2023/10/05 06:08:11;;;;;;;9.57;8.53;;;14.60;25.20;;;;;;4987651;28;20440;-80
2023/10/05 06:10:37;;;;;;;9.07;8.47;;;14.70;25.20;;;;;;4959929;28;20207;-81
2023/10/05 06:13:06;;;;;;;8.20;7.70;;;14.60;25.20;;;;;;5005539;28;20858;-81
2023/10/05 06:15:31;;;;;;;8.20;7.73;;;14.70;25.20;;;;;;4987968;28;20185;-81
2023/10/05 06:17:59;;;;;;;8.10;7.70;;;14.70;24.70;;;;;;4979392;28;20438;-80
2023/10/05 06:20:25;;;;;;;9.17;8.40;;;14.80;24.60;;;;;;5002557;28;20192;-78
2023/10/05 06:22:51;;;;;;;9.73;8.80;;;14.80;24.50;;;;;;4985783;28;20466;-81
2023/10/05 06:25:17;;;;;;;8.00;7.40;;;14.80;24.60;;;;;;4988592;28;20412;-80
2023/10/05 06:27:44;;;;;;;8.17;7.57;;;14.80;24.50;;;;;;5008354;28;20207;-79
2023/10/05 06:30:11;;;;;;;8.87;8.17;;;14.80;24.50;;;;;;5018291;28;20464;-80
2023/10/05 06:32:37;;;;;;;8.80;8.40;;;14.80;24.60;;;;;;4986102;28;20519;-81
2023/10/05 06:35:07;;;;;;;10.50;9.70;;;14.80;24.90;;;;;;4998966;28;20425;-80
2023/10/05 06:37:34;;;;;;;9.27;8.77;;;14.90;24.70;;;;;;4980730;28;20448;-82
2023/10/05 06:39:59;;;;;;;8.17;7.57;;;14.90;24.60;;;;;;5003086;28;20428;-78
2023/10/05 06:42:25;;;;;;;9.23;8.43;;;14.90;24.50;;;;;;4985979;28;20443;-82
2023/10/05 06:44:51;;;;;;;8.70;8.20;;;14.90;24.50;;;;;;4992438;28;20269;-76
2023/10/05 06:47:50;;;;;;;10.60;9.80;;;14.70;24.30;;;;;;5018253;28;20956;-78
2023/10/05 06:50:10;;;;;;;9.27;8.67;;;14.60;24.70;;;;;;5004421;28;20298;-80
2023/10/05 06:52:42;;;;;;;9.33;8.73;;;14.30;25.80;;;;;;4992191;28;20417;-76
2023/10/05 06:55:09;;;;;;;9.63;8.93;;;14.20;26.00;;;;;;5019768;28;20996;-78
2023/10/05 06:57:39;;;;;;;9.37;8.60;;;14.20;26.20;;;;;;5010937;28;20447;-79
2023/10/05 07:00:16;;;;;;;9.07;8.27;;;14.30;26.10;;;;;;5009239;28;20472;-81
2023/10/05 07:02:41;;;;;;;13.97;8.30;;;14.30;26.10;;;;;;4987916;28;20413;-79
2023/10/05 07:05:08;;;;;;;15.20;13.60;;;14.20;26.00;;;;;;5008858;28;20439;-80
2023/10/05 07:07:35;;;;;;;10.10;9.40;;;14.20;26.30;;;;;;4989194;28;20512;-81
2023/10/05 07:10:03;;;;;;;9.63;9.07;;;14.10;26.20;;;;;;5009695;28;20475;-80
2023/10/05 07:12:35;;;;;;;9.53;8.90;;;14.10;26.80;;;;;;5008548;28;20857;-79
2023/10/05 07:15:05;;;;;;;10.57;9.50;;;14.00;26.70;;;;;;4996654;28;20421;-80
2023/10/05 07:17:31;;;;;;;9.87;9.17;;;14.10;26.50;;;;;;4995281;28;20453;-79
2023/10/05 07:19:58;;;;;;;8.37;7.53;;;14.10;26.40;;;;;;4993998;28;20433;-81
2023/10/05 07:22:24;;;;;;;9.67;9.10;;;14.10;26.30;;;;;;5006460;28;20461;-79
2023/10/05 07:24:49;;;;;;;9.47;8.70;;;14.20;26.10;;;;;;5013721;28;20420;-80
2023/10/05 07:27:17;;;;;;;9.47;8.70;;;14.20;26.00;;;;;;5013958;28;20444;-79
2023/10/05 07:29:45;;;;;;;9.17;8.57;;;14.20;26.40;;;;;;5018688;28;20202;-80
2023/10/05 07:32:12;;;;;;;8.53;7.93;;;14.40;26.20;;;;;;4990677;28;20455;-79
2023/10/05 07:34:39;;;;;;;9.23;8.43;;;14.40;26.10;;;;;;5012023;28;20941;-79
2023/10/05 07:37:06;;;;;;;26.83;17.30;;;14.40;26.20;;;;;;5011357;28;20504;-79
2023/10/05 07:39:31;;;;;;;12.43;11.20;;;14.30;26.10;;;;;;5008830;28;20940;-80
2023/10/05 07:41:59;;;;;;;9.83;8.97;;;14.40;26.20;;;;;;4995362;28;20485;-78
2023/10/05 07:44:27;;;;;;;9.93;9.10;;;14.30;26.10;;;;;;4991506;28;20171;-81
2023/10/05 07:46:53;;;;;;;10.90;9.83;;;14.30;26.10;;;;;;4990994;28;20766;-79
2023/10/05 07:49:18;;;;;;;10.60;9.70;;;14.20;26.20;;;;;;4998302;28;20455;-80
2023/10/05 07:51:44;;;;;;;10.53;9.77;;;14.20;26.40;;;;;;5017324;28;20444;-79
2023/10/05 07:54:10;;;;;;;10.40;9.60;;;14.20;26.50;;;;;;5013963;28;20189;-81
2023/10/05 07:56:35;;;;;;;10.03;9.33;;;14.30;26.40;;;;;;4998622;28;20205;-81
2023/10/05 07:59:01;;;;;;;11.03;10.20;;;14.30;26.10;;;;;;4993159;28;20190;-82
2023/10/05 08:01:27;;;;;;;11.47;10.27;;;14.40;26.20;;;;;;4991587;28;20178;-79
2023/10/05 08:03:52;;;;;;;10.90;10.00;;;14.40;26.20;;;;;;4992500;28;20218;-80
2023/10/05 08:06:18;;;;;;;9.90;9.10;;;14.40;26.20;;;;;;4992440;28;20193;-80
2023/10/05 08:08:47;;;;;;;11.10;10.10;;;14.40;26.20;;;;;;5010134;28;20210;-80
2023/10/05 08:11:15;;;;;;;11.10;10.20;;;14.50;26.20;;;;;;5023227;28;20252;-78
2023/10/05 08:13:41;;;;;;;12.27;11.20;;;14.60;26.30;;;;;;5013487;28;20424;-78
2023/10/05 08:16:10;;;;;;;10.10;9.50;;;14.60;26.30;;;;;;5009804;28;20417;-78
2023/10/05 08:18:36;;;;;;;10.37;9.77;;;14.70;25.90;;;;;;5011076;28;20428;-79
2023/10/05 08:21:04;;;;;;;10.53;9.90;;;14.60;25.80;;;;;;5013171;28;20432;-77
2023/10/05 08:23:30;;;;;;;11.30;10.20;;;14.70;25.80;;;;;;4993816;28;20798;-81
2023/10/05 08:25:58;;;;;;;10.80;9.83;;;14.80;25.90;;;;;;5002503;28;20902;-82
2023/10/05 08:28:24;;;;;;;9.43;8.47;;;14.90;25.60;;;;;;4973397;28;20495;-80
2023/10/05 08:31:12;;;;;;;11.47;10.63;;;14.90;25.50;;;;;;4995052;28;20418;-80
2023/10/05 08:33:38;;;;;;;10.70;9.73;;;14.90;25.80;;;;;;4971989;28;21003;-81
2023/10/05 08:36:43;;;;;;;10.27;9.47;;;14.90;25.30;;;;;;4982071;28;20422;-82
2023/10/05 08:39:21;;;;;;;10.07;9.47;;;15.00;25.30;;;;;;4978787;28;20213;-81
2023/10/05 08:41:48;;;;;;;11.37;10.23;;;15.00;25.70;;;;;;4996389;28;20449;-80
2023/10/05 08:44:26;;;;;;;11.70;10.67;;;15.10;25.70;;;;;;4975644;28;20449;-80
2023/10/05 08:46:53;;;;;;;10.20;9.20;;;15.10;25.00;;;;;;4978927;28;20568;-80
2023/10/05 08:49:19;;;;;;;12.70;11.80;;;15.10;25.20;;;;;;4978324;28;20460;-80
2023/10/05 08:51:45;;;;;;;10.53;9.83;;;15.20;25.50;;;;;;4980243;28;20421;-79
2023/10/05 08:54:13;;;;;;;13.07;11.10;;;15.20;25.10;;;;;;4978911;28;20475;-80
2023/10/05 08:56:41;;;;;;;10.67;9.90;;;15.40;25.00;;;;;;4995917;28;20691;-79
2023/10/05 08:59:08;;;;;;;10.97;10.13;;;15.40;24.20;;;;;;4989984;28;20508;-78
2023/10/05 09:01:34;;;;;;;10.30;9.40;;;15.40;24.40;;;;;;4996059;28;20417;-78
2023/10/05 09:04:11;;;;;;;10.27;9.57;;;15.30;24.50;;;;;;4979971;28;20460;-80
2023/10/05 09:06:47;;;;;;;10.33;9.63;;;15.40;24.60;;;;;;4989135;28;20447;-81
2023/10/05 09:09:14;;;;;;;11.03;10.07;;;15.50;24.50;;;;;;4977825;28;20479;-80
2023/10/05 09:11:41;;;;;;;10.83;10.03;;;15.60;24.20;;;;;;5000053;28;20413;-79
2023/10/05 09:14:18;;;;;;;11.40;10.40;;;15.70;24.10;;;;;;4978977;28;20427;-81
2023/10/05 09:16:47;;;;;;;11.53;10.63;;;15.70;23.90;;;;;;4994764;28;20523;-81
2023/10/05 09:19:26;;;;;;;11.40;10.40;;;15.80;23.60;;;;;;4996452;28;20421;-83
2023/10/05 09:24:25;;;;;;;11.20;10.40;;;15.90;23.80;;;;;;4996302;28;20452;-80
2023/10/05 09:26:56;;;;;;;15.80;10.27;;;16.00;23.60;;;;;;4997661;28;20452;-81
2023/10/05 09:29:28;;;;;;;11.03;10.13;;;16.10;23.20;;;;;;5005442;28;20487;-81
2023/10/05 09:35:33;;;;;;;10.77;10.07;;;16.10;23.60;;;;;;4986445;28;20408;-80
2023/10/05 09:38:00;;;;;;;10.97;9.97;;;16.20;23.40;;;;;;4978553;28;20433;-80
2023/10/05 09:40:28;;;;;;;11.17;10.13;;;16.20;23.20;;;;;;4997011;28;20508;-80
2023/10/05 09:42:59;;;;;;;12.53;11.53;;;16.20;23.30;;;;;;4996790;28;20497;-80
2023/10/05 09:45:29;;;;;;;11.40;10.50;;;16.10;23.20;;;;;;4977714;28;20427;-80
2023/10/05 09:47:58;;;;;;;12.27;11.27;;;16.20;23.50;;;;;;4978041;28;20949;-80
2023/10/05 09:50:26;;;;;;;11.77;10.77;;;16.30;23.70;;;;;;4996997;28;20897;-81
2023/10/05 09:52:53;;;;;;;10.93;10.20;;;16.50;23.60;;;;;;4978720;28;20444;-80
2023/10/05 09:55:20;;;;;;;12.60;11.77;;;16.60;23.50;;;;;;4979214;28;20917;-80
2023/10/05 09:57:47;;;;;;;11.50;10.40;;;16.70;22.90;;;;;;4995740;28;20516;-80
2023/10/05 10:03:36;;;;;;;10.90;9.90;;;16.90;21.80;;;;;;4994095;28;20388;-80
2023/10/05 10:06:10;;;;;;;11.50;10.50;;;16.80;21.90;;;;;;4985906;28;20517;-81
2023/10/05 10:08:55;;;;;;;10.87;9.93;;;16.80;21.30;;;;;;5005287;28;20785;-81
2023/10/05 10:11:27;;;;;;;10.77;9.77;;;16.90;21.30;;;;;;4982429;28;20444;-81
2023/10/05 10:14:18;;;;;;;12.40;11.17;;;17.00;20.70;;;;;;5002205;28;20420;-81
2023/10/05 10:16:47;;;;;;;14.23;11.03;;;17.10;20.00;;;;;;5007123;28;20814;-80
2023/10/05 10:19:19;;;;;;;13.30;12.00;;;17.20;19.80;;;;;;5005627;28;20420;-79
2023/10/05 10:21:49;;;;;;;12.50;11.40;;;17.20;19.80;;;;;;4991193;28;20421;-79
2023/10/05 10:24:17;;;;;;;9.87;9.00;;;17.30;19.90;;;;;;4979372;28;20840;-79
2023/10/05 10:26:56;;;;;;;9.90;9.00;;;17.30;19.90;;;;;;4995655;28;20431;-80
2023/10/05 10:29:44;;;;;;;10.97;10.10;;;17.30;19.90;;;;;;4995227;28;20536;-79
2023/10/05 10:32:22;;;;;;;13.40;10.67;;;17.30;19.90;;;;;;5001383;28;20437;-78
2023/10/05 10:35:13;;;;;;;9.87;8.87;;;17.40;19.90;;;;;;4989992;28;20409;-82
2023/10/05 10:37:49;;;;;;;10.00;9.17;;;17.50;20.00;;;;;;4989632;28;20453;-81
2023/10/05 10:42:54;;;;;;;10.73;9.70;;;17.50;19.60;;;;;;5006226;28;20489;-81
2023/10/05 10:46:08;;;;;;;10.03;9.17;;;17.50;19.60;;;;;;5005898;28;20439;-79
2023/10/05 10:48:21;;;;;;;10.73;8.33;;;17.60;19.00;;;;;;5005441;28;20517;-79
2023/10/05 10:50:52;;;;;;;9.53;8.77;;;17.60;19.00;;;;;;5009549;28;20460;-79
2023/10/05 10:53:21;;;;;;;9.00;8.30;;;17.60;18.30;;;;;;4993058;28;20470;-79
2023/10/05 10:55:52;;;;;;;10.10;9.30;;;17.70;17.80;;;;;;4993085;28;20417;-79
2023/10/05 10:58:23;;;;;;;9.10;8.23;;;17.70;17.60;;;;;;5010873;28;20473;-79
2023/10/05 11:00:59;;;;;;;8.40;7.60;;;17.70;17.40;;;;;;4992462;28;20500;-81
2023/10/05 11:03:26;;;;;;;8.77;8.07;;;17.60;17.40;;;;;;4991281;28;20428;-80
2023/10/05 11:05:54;;;;;;;10.17;9.27;;;17.60;17.60;;;;;;5010544;28;20724;-80
2023/10/05 11:08:20;;;;;;;9.43;8.60;;;17.70;18.50;;;;;;4991167;28;20448;-81
2023/10/05 11:10:59;;;;;;;9.40;8.50;;;17.70;18.60;;;;;;4991594;28;20860;-80
2023/10/05 11:13:26;;;;;;;11.50;10.40;;;17.70;19.00;;;;;;4989663;28;20444;-79
2023/10/05 11:15:59;;;;;;;10.13;9.23;;;17.60;18.80;;;;;;4991342;28;20454;-80
2023/10/05 11:18:30;;;;;;;9.63;8.70;;;17.60;18.80;;;;;;4990113;28;20425;-80
2023/10/05 11:21:14;;;;;;;10.13;9.37;;;17.50;19.10;;;;;;5010269;28;20477;-80
2023/10/05 11:24:06;;;;;;;10.70;9.80;;;17.50;19.50;;;;;;4987818;28;20421;-81
2023/10/05 11:27:05;;;;;;;10.00;9.20;;;17.50;19.40;;;;;;4990744;28;20429;-81
2023/10/05 11:29:29;;;;;;;10.70;9.80;;;17.50;20.00;;;;;;5006947;28;20468;-80
2023/10/05 11:32:12;;;;;;;9.50;8.70;;;17.60;19.40;;;;;;4995951;28;20448;-81
2023/10/05 11:34:39;;;;;;;9.87;8.67;;;17.60;18.50;;;;;;5007490;28;20477;-81
2023/10/05 11:37:15;;;;;;;14.57;9.50;;;17.60;18.00;;;;;;4994209;28;20448;-82
2023/10/05 11:39:49;;;;;;;10.83;10.00;;;17.60;18.50;;;;;;5010017;28;20517;-82
2023/10/05 11:42:24;;;;;;;10.23;9.30;;;17.70;18.90;;;;;;4991225;28;20417;-82
2023/10/05 11:45:12;;;;;;;9.93;9.13;;;17.70;18.80;;;;;;5009088;28;20432;-81
2023/10/05 11:47:52;;;;;;;10.90;9.70;;;17.70;18.60;;;;;;4987420;28;20476;-80
2023/10/05 11:50:35;;;;;;;10.20;9.33;;;17.70;18.70;;;;;;5009392;28;20473;-82
2023/10/05 11:53:12;;;;;;;11.20;9.87;;;17.70;18.10;;;;;;4997175;28;20833;-82
2023/10/05 11:55:40;;;;;;;10.27;9.57;;;17.60;18.70;;;;;;4996782;28;20463;-81
2023/10/05 11:58:08;;;;;;;11.87;9.87;;;17.50;18.00;;;;;;5009874;28;20468;-79
2023/10/05 12:00:35;;;;;;;10.60;9.90;;;17.60;19.10;;;;;;4990850;28;20425;-79
2023/10/05 12:03:00;;;;;;;9.93;9.10;;;17.60;17.90;;;;;;5008619;28;20456;-81
2023/10/05 12:05:28;;;;;;;9.37;8.67;;;17.60;17.70;;;;;;5009730;28;20885;-81
2023/10/05 12:07:54;;;;;;;8.60;8.00;;;17.60;17.70;;;;;;4994798;28;20209;-80
2023/10/05 12:10:19;;;;;;;8.57;8.00;;;17.70;17.60;;;;;;5005067;28;20460;-81
2023/10/05 12:12:50;;;;;;;9.30;8.60;;;17.70;17.60;;;;;;5004596;28;20177;-80
2023/10/05 12:15:17;;;;;;;9.53;8.83;;;17.80;17.10;;;;;;5007328;28;20171;-81
2023/10/05 12:17:44;;;;;;;9.30;8.37;;;17.80;17.10;;;;;;4989795;28;20429;-80
2023/10/05 12:20:14;;;;;;;9.83;8.83;;;17.70;16.90;;;;;;4996017;28;20425;-79
2023/10/05 12:22:40;;;;;;;10.20;9.30;;;17.70;17.40;;;;;;5009290;28;20472;-78
2023/10/05 12:25:07;;;;;;;9.73;8.93;;;17.50;17.50;;;;;;4992728;28;20425;-82
2023/10/05 12:27:35;;;;;;;9.40;8.60;;;17.60;18.20;;;;;;4990019;28;20445;-81
2023/10/05 12:30:10;;;;;;;9.57;8.87;;;17.60;18.30;;;;;;5007204;28;20468;-80
2023/10/05 12:32:40;;;;;;;9.80;8.93;;;17.60;18.20;;;;;;4983297;28;20962;-81
2023/10/05 12:35:13;;;;;;;9.27;8.60;;;17.70;17.90;;;;;;5008203;28;20428;-81
2023/10/05 12:37:43;;;;;;;9.87;9.07;;;17.70;17.80;;;;;;5006389;28;20461;-82
2023/10/05 12:40:18;;;;;;;9.77;8.97;;;17.80;18.40;;;;;;5003842;28;20425;-80
2023/10/05 12:42:54;;;;;;;9.30;8.30;;;17.80;18.10;;;;;;4984546;28;20437;-79
2023/10/05 12:45:23;;;;;;;10.10;9.07;;;17.80;17.50;;;;;;4984052;28;20450;-80
2023/10/05 12:47:54;;;;;;;10.13;9.30;;;17.80;17.70;;;;;;5006772;28;20504;-79
2023/10/05 12:50:21;;;;;;;9.70;8.87;;;17.70;17.50;;;;;;4991482;28;20460;-81
2023/10/05 12:52:52;;;;;;;9.73;8.93;;;17.80;18.00;;;;;;5006178;28;20410;-79
2023/10/05 12:55:22;;;;;;;9.80;9.00;;;17.80;17.90;;;;;;4990832;28;20515;-79
2023/10/05 12:57:52;;;;;;;10.20;9.33;;;17.80;17.50;;;;;;4995583;28;20551;-80
2023/10/05 13:00:28;;;;;;;9.37;8.57;;;17.70;17.20;;;;;;5000626;28;20463;-80
2023/10/05 13:03:00;;;;;;;10.03;9.03;;;17.70;17.10;;;;;;4982363;28;20428;-80
2023/10/05 13:05:31;;;;;;;10.33;9.53;;;17.70;17.20;;;;;;4976691;28;20437;-79
2023/10/05 13:08:01;;;;;;;10.67;9.80;;;17.70;17.20;;;;;;4976425;28;20507;-82
2023/10/05 13:10:32;;;;;;;10.43;9.33;;;17.60;17.70;;;;;;5003703;28;20464;-81
2023/10/05 13:13:02;;;;;;;9.27;8.57;;;17.60;17.50;;;;;;4976963;28;20500;-81
2023/10/05 13:15:33;;;;;;;10.10;9.20;;;17.60;17.40;;;;;;4985110;28;20941;-79
2023/10/05 13:18:15;;;;;;;10.30;9.37;;;17.60;17.60;;;;;;5004055;28;20444;-81
2023/10/05 13:20:42;;;;;;;9.40;8.57;;;17.60;18.00;;;;;;4985270;28;20428;-82